Air Resources Laboratory banner image
Air Resources Laboratory web site National Oceanic and Atmospheric Administration (NOAA)

ks metar


K3K3 160855Z AUTO 31015G22KT 10SM SCT019 BKN032 OVC055 21/17 A3012 RMK AO2=
KAAO 160854Z AUTO 21010KT 10SM CLR 28/16 A2988 RMK AO2 SLP097 T02830161 53003 $=
KCBK 160855Z AUTO 15006KT 10SM -RA BKN080 BKN120 19/19 A3007 RMK AO2 T01940185
 60001=
KCFV 160852Z AUTO 13004KT 10SM CLR 26/21 A2985 RMK AO2 SLP100 T02560211 58000
 TSNO=
KCNK 160855Z AUTO 09011G19KT 10SM BKN110 21/18 A2995 RMK AO2 PK WND 10028/0812
 LTG DSNT ALQDS RAB0759E30 TSB22E37 SLP122 P0003 60009 T02060183 55012=
KCNU 160852Z AUTO 12007KT 10SM CLR 26/20 A2987 RMK AO2 SLP101 T02560200 58007=
KDDC 160852Z AUTO 02014G23KT 7SM OVC009 21/19 A2999 RMK AO2 SLP117 T02110189
 51022=
KEHA 160855Z AUTO 35015KT 10SM CLR 22/16 A3011 RMK AO2 T02210158=
KEMP 160853Z AUTO 10SM SCT110 23/19 A2992 RMK AO2 SLP118 T02280189 53007=
KEWK 160856Z AUTO 33005KT 10SM OVC110 28/17 A2992 RMK AO2 PRESRR SLP107
 T02830167 53012=
KFOE 160853Z AUTO 07011G16KT 10SM SCT026 BKN100 22/18 A2995 RMK AO2 SLP131
 T02170178 50006 $=
KFRI 160856Z AUTO 36011KT 10SM SCT017 BKN110 22/18 A2999 RMK AO2 SLP142
 T02150179 53025 FZRANO TSNO $=
KGBD 160856Z AUTO 01013KT 10SM OVC008 21/18 A2996 RMK AO2 SLP123 T02060183
 53010=
KGCK 160854Z AUTO 03015KT 9SM OVC010 21/19 A3001 RMK AO2 PK WND 04026/0826
 SLP120 T02110194 51016=
KGLD 160853Z AUTO 22009KT 10SM SCT120 19/18 A3009 RMK AO2 WSHFT 0803 RAB07E27
 SLP139 P0001 60003 T01890178 55003=
KHLC 160853Z AUTO 03007KT 8SM OVC009 20/19 A3001 RMK AO2 CIG 007V012 SLP135
 T02000189 58004=
KHUT 160852Z AUTO 00000KT 10SM CLR 27/17 A2989 RMK AO2 SLP092 T02670167 53009=
KHYS 160856Z AUTO 02011KT 10SM OVC008 19/18 A2999 RMK AO2 SLP133 6////
 T01940178 53008 $=
KIAB 160856Z 23006KT 10SM CLR 26/16 A2987 RMK AO2A SLPNO 53003 $=
KICT 160853Z 22007KT 10SM CLR 27/16 A2987 RMK AO2 SLP096 T02670156 53002=
KIXD 160853Z AUTO 10014G23KT 10SM FEW120 22/17 A2996 RMK AO2 LTG DSNT N SLP132
 T02170172 55003=
KLBL 160856Z AUTO 22007KT 10SM CLR 24/14 A2999 RMK AO2 SLP112 T02390139 50010=
KLWC 160852Z AUTO 06010G17KT 10SM BKN024 OVC029 22/18 A2998 RMK AO1 LTG DSNT N
 AND NE SLP143 T02220178 53010=
KMHK 160852Z AUTO 02009G16KT 10SM BKN018 BKN120 22/18 A3000 RMK AO2 LTG DSNT N
 PRESRR SLP147 T02220178 53025=
KNRN 160855Z AUTO 05011G14KT 1 3/4SM BR OVC002 18/17 A3003 RMK AO2 P0005=
KOIN 160815Z AUTO 00000KT 5SM BR SCT005 OVC011 19/19 A3009 RMK AO1 T01910191=
KOJC 160853Z AUTO 10014G22KT 10SM FEW018 OVC027 22/18 A2996 RMK AO2 LTG DSNT N
 SLP131 T02170178 55003=
KP28 160856Z AUTO 00000KT 24/16 A2989 RMK AO1 SLP100 T02390156 53006 $=
KPPF 160852Z AUTO 00000KT 10SM CLR 25/20 A2988 RMK AO2 SLP103 T02500200 58004 $=
KRSL 160853Z AUTO 03010KT 10SM OVC010 20/18 A2995 RMK AO2 SLP120 T02000178
 52010=
KSLN 160853Z AUTO 06013G23KT 10SM FEW120 22/18 A2993 RMK AO2 PK WND 05026/0841
 SLP118 T02170183 53020=
KSYF 160855Z AUTO 22010KT 10SM SCT120 18/17 A3010 RMK AO2 T01820165 PWINO=
KTOP 160853Z AUTO 07009G18KT 10SM BKN033 BKN100 23/18 A2996 RMK AO2 LTG DSNT N
 SLP134 T02280183 53007=
KWLD 160854Z AUTO 22011KT 10SM CLR 28/17 A2988 RMK AO2 SLP101 T02830167 50001=